createdAt,value
2024-03-22T00:04:27.683Z,10.60
2024-03-22T00:09:29.580Z,10.61
2024-03-22T00:14:32.304Z,10.62
2024-03-22T00:19:35.987Z,10.62
2024-03-22T00:24:37.744Z,10.62
2024-03-22T00:29:39.621Z,10.62
2024-03-22T00:34:41.378Z,10.63
2024-03-22T00:39:43.083Z,10.63
2024-03-22T00:44:44.760Z,10.60
2024-03-22T00:49:46.544Z,10.56
2024-03-22T00:54:48.374Z,10.52
2024-03-22T00:59:50.091Z,10.48
2024-03-22T01:04:51.851Z,10.45
2024-03-22T01:09:53.594Z,10.42
2024-03-22T01:14:55.551Z,10.38
2024-03-22T01:19:57.321Z,10.36
2024-03-22T01:24:58.963Z,10.34
2024-03-22T01:30:00.739Z,10.33
2024-03-22T01:35:02.435Z,10.32
2024-03-22T01:40:08.222Z,10.32
2024-03-22T01:45:10.004Z,10.31
2024-03-22T01:50:12.994Z,10.30
2024-03-22T01:55:14.923Z,10.28
2024-03-22T02:00:17.099Z,10.26
2024-03-22T02:05:22.719Z,10.22
2024-03-22T02:10:24.506Z,10.18
2024-03-22T02:15:26.283Z,10.15
2024-03-22T02:20:27.973Z,10.11
2024-03-22T02:25:29.690Z,10.07
2024-03-22T02:30:31.423Z,10.03
2024-03-22T02:35:33.216Z,10.00
2024-03-22T02:40:34.952Z,9.98
2024-03-22T02:45:36.894Z,9.96
2024-03-22T02:50:39.253Z,9.95
2024-03-22T02:55:41.482Z,9.92
2024-03-22T03:00:43.783Z,9.89
2024-03-22T03:05:45.658Z,9.85
2024-03-22T03:10:47.481Z,9.82
2024-03-22T03:15:49.279Z,9.78
2024-03-22T03:20:51.197Z,9.75
2024-03-22T03:25:52.891Z,9.70
2024-03-22T03:30:54.539Z,9.66
2024-03-22T03:35:56.293Z,9.64
2024-03-22T03:40:58.040Z,9.61
2024-03-22T03:45:59.832Z,9.55
2024-03-22T03:51:04.164Z,9.48
2024-03-22T03:56:05.925Z,9.40
2024-03-22T04:01:09.016Z,9.32
2024-03-22T04:06:10.794Z,9.27
2024-03-22T04:11:12.986Z,9.21
2024-03-22T04:16:15.088Z,9.17
2024-03-22T04:21:16.880Z,9.11
2024-03-22T04:26:18.550Z,9.05
2024-03-22T04:31:20.261Z,8.99
2024-03-22T04:36:22.056Z,8.92
2024-03-22T04:41:23.787Z,8.85
2024-03-22T04:46:25.565Z,8.79
2024-03-22T04:51:27.352Z,8.76
2024-03-22T04:56:29.078Z,8.74
2024-03-22T05:01:30.727Z,8.73
2024-03-22T05:06:32.499Z,8.74
2024-03-22T05:11:34.202Z,8.74
2024-03-22T05:16:36.454Z,8.74
2024-03-22T05:21:38.146Z,8.73
2024-03-22T05:26:40.172Z,8.73
2024-03-22T05:31:50.152Z,8.73
2024-03-22T05:36:51.917Z,8.71
2024-03-22T05:41:55.103Z,8.69
2024-03-22T05:46:56.931Z,8.69
2024-03-22T05:51:59.390Z,8.67
2024-03-22T05:57:01.766Z,8.64
2024-03-22T06:02:03.491Z,8.64
2024-03-22T06:07:05.737Z,8.65
2024-03-22T06:12:07.719Z,8.66
2024-03-22T06:17:09.779Z,8.67
2024-03-22T06:22:11.478Z,8.70
2024-03-22T06:27:14.694Z,8.73
2024-03-22T06:32:16.537Z,8.75
2024-03-22T06:37:18.217Z,8.78
2024-03-22T06:42:19.977Z,8.82
2024-03-22T06:47:22.831Z,8.89
2024-03-22T06:52:24.813Z,8.95
2024-03-22T06:57:26.555Z,8.98
2024-03-22T07:02:28.318Z,9.00
2024-03-22T07:07:30.025Z,9.02
2024-03-22T07:12:31.776Z,9.09
2024-03-22T07:17:33.534Z,9.16
2024-03-22T07:22:35.163Z,9.22
2024-03-22T07:27:37.507Z,9.28
2024-03-22T07:32:39.374Z,9.35
2024-03-22T07:37:41.239Z,9.41
2024-03-22T07:42:42.997Z,9.52
2024-03-22T07:47:44.898Z,9.59
2024-03-22T07:52:46.579Z,9.64
2024-03-22T07:57:48.345Z,9.66
2024-03-22T08:02:50.209Z,9.70
2024-03-22T08:07:51.960Z,9.87
2024-03-22T08:12:54.007Z,9.96
2024-03-22T08:17:58.728Z,9.99
2024-03-22T08:23:00.857Z,10.09
2024-03-22T08:28:07.526Z,10.17
2024-03-22T08:33:14.472Z,10.21
2024-03-22T08:38:18.493Z,10.26
2024-03-22T08:43:23.092Z,10.24
2024-03-22T08:48:24.806Z,10.21
2024-03-22T08:53:26.501Z,10.20
2024-03-22T08:58:29.233Z,10.28
2024-03-22T09:03:31.802Z,10.33
2024-03-22T09:08:35.287Z,10.41
2024-03-22T09:13:37.056Z,10.50
2024-03-22T09:18:38.721Z,10.51
2024-03-22T09:23:40.501Z,10.58
2024-03-22T09:28:43.404Z,10.77
2024-03-22T09:33:46.351Z,11.17
2024-03-22T09:38:48.177Z,11.53
2024-03-22T09:43:51.265Z,11.77
2024-03-22T09:48:54.888Z,12.01
2024-03-22T09:53:56.831Z,12.29
2024-03-22T09:58:59.406Z,12.53
2024-03-22T10:04:02.688Z,12.67
2024-03-22T10:09:06.551Z,12.73
2024-03-22T10:14:13.012Z,12.82
2024-03-22T10:19:17.569Z,12.90
2024-03-22T10:24:19.828Z,12.94
2024-03-22T10:29:23.261Z,13.05
2024-03-22T10:34:26.016Z,13.20
2024-03-22T10:39:28.238Z,13.30
2024-03-22T10:44:30.052Z,13.49
2024-03-22T10:49:37.864Z,13.78
2024-03-22T10:54:45.694Z,13.91
2024-03-22T10:59:47.931Z,13.89
2024-03-22T11:04:58.981Z,13.87
2024-03-22T11:10:07.555Z,13.90
2024-03-22T11:15:11.755Z,13.75
2024-03-22T11:20:13.509Z,13.62
2024-03-22T11:25:15.105Z,13.51
2024-03-22T11:30:17.307Z,13.35
2024-03-22T11:35:19.179Z,13.25
2024-03-22T11:40:20.978Z,13.23
2024-03-22T11:45:24.060Z,13.18
2024-03-22T11:50:25.871Z,13.21
2024-03-22T11:55:31.543Z,13.26
2024-03-22T12:05:38.783Z,13.33
2024-03-22T12:10:40.565Z,13.44
2024-03-22T12:15:42.948Z,13.59
2024-03-22T12:20:46.678Z,13.87
2024-03-22T12:25:48.556Z,14.00
2024-03-22T12:30:53.413Z,14.14
2024-03-22T12:35:55.212Z,14.22
2024-03-22T12:40:57.484Z,14.38
2024-03-22T12:45:59.381Z,14.45
2024-03-22T12:51:01.432Z,14.50
2024-03-22T12:56:07.339Z,14.61
2024-03-22T13:01:11.865Z,14.70
2024-03-22T13:06:13.682Z,14.75
2024-03-22T13:11:15.396Z,14.77
2024-03-22T13:16:17.368Z,14.83
2024-03-22T13:21:19.234Z,14.77
2024-03-22T13:26:20.946Z,14.74
2024-03-22T13:31:24.073Z,14.76
2024-03-22T13:36:27.533Z,14.59
2024-03-22T13:41:29.736Z,14.43
2024-03-22T13:46:31.801Z,14.31
2024-03-22T13:51:33.484Z,14.21
2024-03-22T13:56:35.325Z,14.12
2024-03-22T14:01:37.899Z,14.03
2024-03-22T14:06:39.751Z,13.93
2024-03-22T14:11:42.767Z,13.81
2024-03-22T14:16:44.503Z,13.67
2024-03-22T14:21:50.066Z,13.64
2024-03-22T14:26:51.818Z,13.69
2024-03-22T14:31:53.841Z,13.73
2024-03-22T14:36:55.629Z,13.82
2024-03-22T14:41:57.435Z,13.96
2024-03-22T14:46:59.749Z,14.02
2024-03-22T14:52:01.514Z,13.93
2024-03-22T14:57:03.449Z,13.83
2024-03-22T15:02:05.477Z,13.74
2024-03-22T15:07:07.181Z,13.70
2024-03-22T15:12:10.558Z,13.73
2024-03-22T15:17:12.952Z,13.67
2024-03-22T15:22:17.084Z,13.62
2024-03-22T15:27:18.800Z,13.53
2024-03-22T15:32:21.051Z,13.41
2024-03-22T15:37:22.760Z,13.31
2024-03-22T15:42:24.517Z,13.17
2024-03-22T15:47:26.212Z,13.04
2024-03-22T15:52:28.070Z,12.94
2024-03-22T15:57:30.013Z,12.92
2024-03-22T16:02:31.699Z,12.94
2024-03-22T16:07:33.498Z,12.94
2024-03-22T16:12:35.377Z,12.92
2024-03-22T16:17:37.063Z,12.87
2024-03-22T16:22:39.913Z,12.82
2024-03-22T16:27:41.664Z,12.78
2024-03-22T16:32:43.354Z,12.71
2024-03-22T16:37:45.139Z,12.63
2024-03-22T16:42:48.652Z,12.55
2024-03-22T16:47:51.932Z,12.44
2024-03-22T16:52:53.779Z,12.29
2024-03-22T16:57:55.656Z,12.19
2024-03-22T17:02:57.518Z,12.10
2024-03-22T17:07:59.268Z,11.97
2024-03-22T17:13:01.036Z,11.85
2024-03-22T17:18:03.110Z,11.74
2024-03-22T17:23:05.003Z,11.61
2024-03-22T17:28:08.117Z,11.51
2024-03-22T17:33:10.229Z,11.44
2024-03-22T17:38:12.118Z,11.37
2024-03-22T17:43:15.262Z,11.32
2024-03-22T17:48:17.040Z,11.28
2024-03-22T17:53:19.622Z,11.22
2024-03-22T17:58:21.462Z,11.12
2024-03-22T18:03:23.243Z,11.03
2024-03-22T18:08:25.558Z,10.97
2024-03-22T18:13:28.717Z,10.91
2024-03-22T18:18:30.586Z,10.85
2024-03-22T18:23:34.544Z,10.81
2024-03-22T18:28:36.355Z,10.77
2024-03-22T18:33:38.901Z,10.71
2024-03-22T18:38:40.714Z,10.64
2024-03-22T18:43:42.533Z,10.59
2024-03-22T18:48:44.972Z,10.54
2024-03-22T18:53:47.418Z,10.50
2024-03-22T18:58:49.350Z,10.46
2024-03-22T19:03:51.337Z,10.45
2024-03-22T19:08:53.060Z,10.44
2024-03-22T19:13:55.194Z,10.44
2024-03-22T19:18:56.850Z,10.42
2024-03-22T19:23:58.535Z,10.43
2024-03-22T19:29:02.523Z,10.43
2024-03-22T19:34:06.875Z,10.43
2024-03-22T19:39:10.173Z,10.44
2024-03-22T19:44:14.026Z,10.43
2024-03-22T19:49:18.232Z,10.43
2024-03-22T19:54:23.903Z,10.43
2024-03-22T19:59:25.720Z,10.43
2024-03-22T20:04:27.394Z,10.42
2024-03-22T20:09:29.125Z,10.39
2024-03-22T20:14:30.913Z,10.39
2024-03-22T20:19:32.648Z,10.38
2024-03-22T20:24:34.331Z,10.38
2024-03-22T20:29:36.532Z,10.38
2024-03-22T20:34:38.254Z,10.38
2024-03-22T20:39:40.320Z,10.37
2024-03-22T20:44:41.991Z,10.37
2024-03-22T20:49:45.071Z,10.38
2024-03-22T20:54:46.866Z,10.39
2024-03-22T20:59:48.691Z,10.38
2024-03-22T21:04:52.984Z,10.39
2024-03-22T21:09:56.009Z,10.40
2024-03-22T21:14:58.340Z,10.42
2024-03-22T21:20:00.715Z,10.44
2024-03-22T21:25:03.093Z,10.44
2024-03-22T21:30:04.768Z,10.42
2024-03-22T21:35:06.942Z,10.41
2024-03-22T21:40:08.803Z,10.42
2024-03-22T21:45:10.666Z,10.42
2024-03-22T21:50:12.380Z,10.42
2024-03-22T21:55:14.171Z,10.44
2024-03-22T22:00:16.080Z,10.46
2024-03-22T22:05:17.876Z,10.43
2024-03-22T22:10:19.569Z,10.36
2024-03-22T22:15:24.072Z,10.32
2024-03-22T22:20:25.812Z,10.30
2024-03-22T22:25:27.476Z,10.30
2024-03-22T22:30:29.575Z,10.31
2024-03-22T22:35:31.308Z,10.33
2024-03-22T22:40:33.170Z,10.36
2024-03-22T22:45:34.897Z,10.38
2024-03-22T22:50:38.803Z,10.39
2024-03-22T22:55:40.589Z,10.39
2024-03-22T23:00:42.345Z,10.39
2024-03-22T23:05:44.111Z,10.40
2024-03-22T23:10:45.899Z,10.42
2024-03-22T23:15:47.760Z,10.43
2024-03-22T23:20:50.532Z,10.42
2024-03-22T23:25:52.285Z,10.42
2024-03-22T23:30:54.439Z,10.41
2024-03-22T23:35:56.536Z,10.42
2024-03-22T23:40:58.345Z,10.42
2024-03-22T23:46:00.058Z,10.40
2024-03-22T23:51:01.731Z,10.39
2024-03-22T23:56:03.412Z,10.38
